37 Rocks — ZM3003 — position and weather

sailwx.info

Track history (hours):
 
Tides and Currents Weather Stations Pressure Air Temp Water Temp Dewpoint Dewpoint Depression Visibility Wind Speed Wind Dir Waves Ship Positions

37 Rocks

Last reported at 2014-Sep-23 08:25 UTC. Time now 2014-Nov-26 23:09 UTC.
Position N 36°59' E 026°04'.
Warning: this ship's position is months out of date.

Length 17 m.

Type: Sailing vessel. MMSI: 512003230.

Date/timePositionNaut miles runAvg speedWind from/ knotsBaromVisibWave heightAir tempDewpointWater temp
2014-Sep-23 08:25N 36°59' E 026°04'6 7.0
2014-Sep-23 07:33N 36°58' E 025°57'7 6.9
2014-Sep-23 06:31N 36°57' E 025°48'6 6.7
2014-Sep-23 05:33N 36°56' E 025°40'7 6.5
2014-Sep-23 04:33N 36°56' E 025°32'3 2.2
2014-Sep-23 03:14N 36°56' E 025°28'0 0.0
2014-Sep-23 02:20N 36°56' E 025°28'0 0.0
2014-Sep-23 01:32N 36°56' E 025°28'0 0.0
2014-Sep-23 00:20N 36°56' E 025°28'0 0.0
2014-Sep-22 23:20N 36°56' E 025°28'0 0.0
2014-Sep-22 22:32N 36°56' E 025°28'0 0.0
2014-Sep-22 21:32N 36°56' E 025°28'0 0.0
2014-Sep-22 20:32N 36°56' E 025°28'0 0.0
2014-Sep-22 19:32N 36°56' E 025°28'0 0.0
2014-Sep-22 18:32N 36°56' E 025°28'4 3.9
2014-Sep-22 17:33N 36°53' E 025°25'6 6.3
2014-Sep-22 16:33N 36°49' E 025°19'7 6.9
2014-Sep-22 15:33N 36°43' E 025°15'2 0.1
2014-Sep-21 15:08N 36°43' E 025°17'0 0.0
2014-Sep-21 14:32N 36°43' E 025°18'0 0.0
2014-Sep-21 13:32N 36°43' E 025°18'0 0.0
2014-Sep-21 12:32N 36°43' E 025°18'0 0.0
2014-Sep-21 11:32N 36°43' E 025°18'0 0.0
2014-Sep-21 10:32N 36°43' E 025°18'0 0.0
2014-Sep-21 09:32N 36°43' E 025°17'4 4.4
2014-Sep-21 08:33N 36°44' E 025°12'8 7.5
2014-Sep-21 07:33N 36°48' E 025°04'7 7.1
2014-Sep-21 06:32N 36°51' E 024°56'7 6.8
2014-Sep-21 05:33N 36°55' E 024°49'4 0.3
2014-Sep-20 16:33N 36°58' E 024°46'8 7.5
2014-Sep-20 15:32N 37°04' E 024°40'59 2.2
2014-Sep-19 12:29N 37°39' E 023°40'4 0.1
2014-Sep-17 14:33N 37°43' E 023°41'58 2.1
2014-Sep-16 11:25N 37°23' E 024°50'3 1.3
2014-Sep-16 09:33N 37°22' E 024°53'4 0.1
2014-Sep-15 09:04N 37°23' E 024°57'3 0.2
2014-Sep-14 16:03N 37°27' E 024°57'0 0.0
2014-Sep-14 15:33N 37°27' E 024°57'4 4.3
2014-Sep-14 14:33N 37°27' E 025°02'6 5.9
2014-Sep-14 13:33N 37°27' E 025°10'6 5.7
2014-Sep-14 12:33N 37°25' E 025°16'3 3.5
2014-Sep-14 11:33N 37°24' E 025°20'1 0.0
2014-Sep-13 17:16N 37°25' E 025°21'0 0.0
2014-Sep-13 16:28N 37°25' E 025°21'0 0.0
2014-Sep-13 15:28N 37°25' E 025°21'0 0.0
2014-Sep-13 14:28N 37°25' E 025°21'0 0.0
2014-Sep-13 13:31N 37°25' E 025°21'0 0.0
2014-Sep-13 12:28N 37°24' E 025°21'  
Track history (hours):
 
Tides and Currents Weather Stations Pressure Air Temp Water Temp Dewpoint Dewpoint Depression Visibility Wind Speed Wind Dir Waves Ship Positions

37 Rocks

Last reported at 2014-Sep-23 08:25 UTC. Time now 2014-Nov-26 23:09 UTC.
Position N 36°59' E 026°04'.
Warning: this ship's position is months out of date.

Length 17 m.

Type: Sailing vessel. MMSI: 512003230.

Date/timePositionNaut miles runAvg speedWind from/ knotsBaromVisibWave heightAir tempDewpointWater temp
2014-Sep-23 08:25N 36°59' E 026°04'6 7.0
2014-Sep-23 07:33N 36°58' E 025°57'7 6.9
2014-Sep-23 06:31N 36°57' E 025°48'6 6.7
2014-Sep-23 05:33N 36°56' E 025°40'7 6.5
2014-Sep-23 04:33N 36°56' E 025°32'3 2.2
2014-Sep-23 03:14N 36°56' E 025°28'0 0.0
2014-Sep-23 02:20N 36°56' E 025°28'0 0.0
2014-Sep-23 01:32N 36°56' E 025°28'0 0.0
2014-Sep-23 00:20N 36°56' E 025°28'0 0.0
2014-Sep-22 23:20N 36°56' E 025°28'0 0.0
2014-Sep-22 22:32N 36°56' E 025°28'0 0.0
2014-Sep-22 21:32N 36°56' E 025°28'0 0.0
2014-Sep-22 20:32N 36°56' E 025°28'0 0.0
2014-Sep-22 19:32N 36°56' E 025°28'0 0.0
2014-Sep-22 18:32N 36°56' E 025°28'4 3.9
2014-Sep-22 17:33N 36°53' E 025°25'6 6.3
2014-Sep-22 16:33N 36°49' E 025°19'7 6.9
2014-Sep-22 15:33N 36°43' E 025°15'2 0.1
2014-Sep-21 15:08N 36°43' E 025°17'0 0.0
2014-Sep-21 14:32N 36°43' E 025°18'0 0.0
2014-Sep-21 13:32N 36°43' E 025°18'0 0.0
2014-Sep-21 12:32N 36°43' E 025°18'0 0.0
2014-Sep-21 11:32N 36°43' E 025°18'0 0.0
2014-Sep-21 10:32N 36°43' E 025°18'0 0.0
2014-Sep-21 09:32N 36°43' E 025°17'4 4.4
2014-Sep-21 08:33N 36°44' E 025°12'8 7.5
2014-Sep-21 07:33N 36°48' E 025°04'7 7.1
2014-Sep-21 06:32N 36°51' E 024°56'7 6.8
2014-Sep-21 05:33N 36°55' E 024°49'4 0.3
2014-Sep-20 16:33N 36°58' E 024°46'8 7.5
2014-Sep-20 15:32N 37°04' E 024°40'59 2.2
2014-Sep-19 12:29N 37°39' E 023°40'4 0.1
2014-Sep-17 14:33N 37°43' E 023°41'58 2.1
2014-Sep-16 11:25N 37°23' E 024°50'3 1.3
2014-Sep-16 09:33N 37°22' E 024°53'4 0.1
2014-Sep-15 09:04N 37°23' E 024°57'3 0.2
2014-Sep-14 16:03N 37°27' E 024°57'0 0.0
2014-Sep-14 15:33N 37°27' E 024°57'4 4.3
2014-Sep-14 14:33N 37°27' E 025°02'6 5.9
2014-Sep-14 13:33N 37°27' E 025°10'6 5.7
2014-Sep-14 12:33N 37°25' E 025°16'3 3.5
2014-Sep-14 11:33N 37°24' E 025°20'1 0.0
2014-Sep-13 17:16N 37°25' E 025°21'0 0.0
2014-Sep-13 16:28N 37°25' E 025°21'0 0.0
2014-Sep-13 15:28N 37°25' E 025°21'0 0.0
2014-Sep-13 14:28N 37°25' E 025°21'0 0.0
2014-Sep-13 13:31N 37°25' E 025°21'0 0.0
2014-Sep-13 12:28N 37°24' E 025°21'  

Dump ship's entire track history